Terminal Aerodrome Forecast
Issued by NWS Charleston, WV

Current Version | Previous Version | Text Only | Print | Product List | Glossary Off
Versions: 1 2 3 4 5 6 7 8 9 10 11 12 13 14 15 16 17 18 19 20 21 22 23 24

000
FTUS41 KRLX 291100
TAFEKN
TAF
KEKN 291128Z 2912/3012 00000KT 6SM BR SCT020
      TEMPO 2912/2914 BKN020
     FM291400 00000KT P6SM FEW020 BKN200
     FM300800 00000KT 3SM BR SCT040
     FM300900 00000KT 1/2SM FG VV001
     FM301100 00000KT 4SM BR BKN025=

USA.gov is the U.S. government's official web portal to all federal, state and local government web resources and services.